createdAt,value
2018-07-02T00:01:03.626Z,10.83
2018-07-02T00:04:06.596Z,10.58
2018-07-02T00:07:12.350Z,10.45
2018-07-02T00:10:15.397Z,10.39
2018-07-02T00:13:18.397Z,10.39
2018-07-02T00:16:21.473Z,10.40
2018-07-02T00:19:24.790Z,10.45
2018-07-02T00:22:28.926Z,10.58
2018-07-02T00:25:31.938Z,10.70
2018-07-02T00:28:35.083Z,10.77
2018-07-02T00:31:39.184Z,10.77
2018-07-02T00:34:43.205Z,10.59
2018-07-02T00:37:47.301Z,10.33
2018-07-02T00:40:50.394Z,10.02
2018-07-02T00:43:53.382Z,9.88
2018-07-02T00:46:56.397Z,9.78
2018-07-02T00:49:59.421Z,9.85
2018-07-02T00:53:03.562Z,10.03
2018-07-02T00:56:06.616Z,10.26
2018-07-02T00:59:09.612Z,10.38
2018-07-02T01:02:12.633Z,10.41
2018-07-02T01:05:15.682Z,10.54
2018-07-02T01:08:19.829Z,10.62
2018-07-02T01:11:22.969Z,10.55
2018-07-02T01:14:26.035Z,10.25
2018-07-02T01:17:30.129Z,10.07
2018-07-02T01:20:33.143Z,9.99
2018-07-02T01:23:36.269Z,10.00
2018-07-02T01:26:39.373Z,10.00
2018-07-02T01:29:42.306Z,9.93
2018-07-02T01:32:45.304Z,9.83
2018-07-02T01:35:49.272Z,9.74
2018-07-02T01:38:52.296Z,9.80
2018-07-02T01:41:55.650Z,9.82
2018-07-02T01:44:58.694Z,9.88
2018-07-02T01:48:01.663Z,9.81
2018-07-02T01:51:04.751Z,9.65
2018-07-02T01:54:07.805Z,9.55
2018-07-02T01:57:10.873Z,9.46
2018-07-02T02:00:15.011Z,9.41
2018-07-02T02:03:18.050Z,9.06
2018-07-02T02:06:21.118Z,8.92
2018-07-02T02:09:24.126Z,8.89
2018-07-02T02:12:27.200Z,9.05
2018-07-02T02:15:30.358Z,9.23
2018-07-02T02:18:33.328Z,9.39
2018-07-02T02:21:36.560Z,9.44
2018-07-02T02:24:40.610Z,9.41
2018-07-02T02:27:43.685Z,9.47
2018-07-02T02:30:46.783Z,9.49
2018-07-02T02:33:49.894Z,9.40
2018-07-02T02:36:53.010Z,9.22
2018-07-02T02:39:55.961Z,9.23
2018-07-02T02:42:58.992Z,9.38
2018-07-02T02:46:01.977Z,9.44
2018-07-02T02:49:05.276Z,9.23
2018-07-02T02:52:08.297Z,8.96
2018-07-02T02:55:11.274Z,8.81
2018-07-02T02:58:14.245Z,8.76
2018-07-02T03:01:18.293Z,8.70
2018-07-02T03:04:21.298Z,8.72
2018-07-02T03:07:24.254Z,8.89
2018-07-02T03:10:28.260Z,8.93
2018-07-02T03:13:32.304Z,9.02
2018-07-02T03:16:35.287Z,9.03
2018-07-02T03:19:38.308Z,9.04
2018-07-02T03:22:41.332Z,9.08
2018-07-02T03:25:44.323Z,9.09
2018-07-02T03:28:47.842Z,9.08
2018-07-02T03:31:50.809Z,9.08
2018-07-02T03:34:53.894Z,8.97
2018-07-02T03:37:57.104Z,9.07
2018-07-02T03:41:00.095Z,9.21
2018-07-02T03:44:03.189Z,9.41
2018-07-02T03:47:06.232Z,9.54
2018-07-02T03:50:09.318Z,9.35
2018-07-02T03:53:13.329Z,9.17
2018-07-02T03:56:16.392Z,9.08
2018-07-02T03:59:19.367Z,9.16
2018-07-02T04:02:22.378Z,9.29
2018-07-02T04:05:25.361Z,11.64
2018-07-02T04:08:28.412Z,14.98
2018-07-02T04:11:31.382Z,17.14
2018-07-02T04:14:34.441Z,18.22
2018-07-02T04:17:37.442Z,19.40
2018-07-02T04:20:42.458Z,20.20
2018-07-02T04:23:45.456Z,20.71
2018-07-02T04:26:49.034Z,21.42
2018-07-02T04:29:52.035Z,22.24
2018-07-02T04:32:55.043Z,23.22
2018-07-02T04:35:58.014Z,23.18
2018-07-02T04:39:01.031Z,21.16
2018-07-02T04:42:05.235Z,22.20
2018-07-02T04:45:08.357Z,23.32
2018-07-02T04:48:11.612Z,22.86
2018-07-02T04:51:14.373Z,24.00
2018-07-02T04:54:17.318Z,25.19
2018-07-02T04:57:20.528Z,26.07
2018-07-02T05:00:23.636Z,27.22
2018-07-02T05:03:26.731Z,28.20
2018-07-02T05:06:29.682Z,28.21
2018-07-02T05:09:33.104Z,27.44
2018-07-02T05:12:36.079Z,27.47
2018-07-02T05:15:39.132Z,28.10
2018-07-02T05:18:42.103Z,28.52
2018-07-02T05:21:45.084Z,28.10
2018-07-02T05:24:48.066Z,28.32
2018-07-02T05:27:51.103Z,28.52
2018-07-02T05:30:54.022Z,29.55
2018-07-02T05:33:57.252Z,28.88
2018-07-02T05:37:00.018Z,28.18
2018-07-02T05:40:03.952Z,28.58
2018-07-02T05:43:06.947Z,27.74
2018-07-02T05:46:09.906Z,27.24
2018-07-02T05:49:12.930Z,27.17
2018-07-02T05:52:15.962Z,27.63
2018-07-02T05:55:18.966Z,28.12
2018-07-02T05:58:22.029Z,28.07
2018-07-02T06:01:25.050Z,28.09
2018-07-02T06:04:28.233Z,27.45
2018-07-02T06:07:31.316Z,27.87
2018-07-02T06:10:34.268Z,29.11
2018-07-02T06:13:37.298Z,30.26
2018-07-02T06:16:40.455Z,30.08
2018-07-02T06:19:43.363Z,29.56
2018-07-02T06:22:46.418Z,29.03
2018-07-02T06:25:49.422Z,29.67
2018-07-02T06:28:52.603Z,29.01
2018-07-02T06:31:55.657Z,29.71
2018-07-02T06:34:58.714Z,30.30
2018-07-02T06:38:01.825Z,31.15
2018-07-02T06:41:04.907Z,32.00
2018-07-02T06:44:07.936Z,31.66
2018-07-02T06:47:11.970Z,31.63
2018-07-02T06:50:14.921Z,31.65
2018-07-02T06:53:17.930Z,31.26
2018-07-02T06:56:22.037Z,30.46
2018-07-02T06:59:25.039Z,30.82
2018-07-02T07:02:28.003Z,31.73
2018-07-02T07:05:30.956Z,30.70
2018-07-02T07:08:33.941Z,31.11
2018-07-02T07:11:37.001Z,31.73
2018-07-02T07:14:39.917Z,32.34
2018-07-02T07:17:42.962Z,32.14
2018-07-02T07:20:45.962Z,30.95
2018-07-02T07:23:49.001Z,30.94
2018-07-02T07:26:52.046Z,30.97
2018-07-02T07:29:55.036Z,30.64
2018-07-02T07:32:58.476Z,30.43
2018-07-02T07:36:01.774Z,29.65
2018-07-02T07:39:07.155Z,30.18
2018-07-02T07:42:10.144Z,29.36
2018-07-02T07:45:13.143Z,28.82
2018-07-02T07:48:16.114Z,28.11
2018-07-02T07:51:20.147Z,28.21
2018-07-02T07:54:23.116Z,28.48
2018-07-02T07:57:26.127Z,27.40
2018-07-02T08:00:30.177Z,27.05
2018-07-02T08:03:33.356Z,26.82
2018-07-02T08:06:36.354Z,26.39
2018-07-02T08:09:39.383Z,26.93
2018-07-02T08:12:42.409Z,26.14
2018-07-02T08:15:45.425Z,25.20
2018-07-02T08:18:48.514Z,24.48
2018-07-02T08:21:51.486Z,24.29
2018-07-02T08:24:54.446Z,24.28
2018-07-02T08:27:57.457Z,24.07
2018-07-02T08:31:00.465Z,23.55
2018-07-02T08:34:04.527Z,23.73
2018-07-02T08:37:07.569Z,23.81
2018-07-02T08:40:11.584Z,23.56
2018-07-02T08:43:14.570Z,23.88
2018-07-02T08:46:17.699Z,24.27
2018-07-02T08:49:21.144Z,24.33
2018-07-02T08:52:24.226Z,24.07
2018-07-02T08:55:27.352Z,23.99
2018-07-02T08:58:30.428Z,24.16
2018-07-02T09:01:33.403Z,24.59
2018-07-02T09:04:37.518Z,24.60
2018-07-02T09:07:40.513Z,24.80
2018-07-02T09:10:43.485Z,25.50
2018-07-02T09:13:46.479Z,25.13
2018-07-02T09:16:49.450Z,25.14
2018-07-02T09:19:52.482Z,25.60
2018-07-02T09:22:55.494Z,25.65
2018-07-02T09:25:58.466Z,25.68
2018-07-02T09:29:01.700Z,25.08
2018-07-02T09:32:04.722Z,25.06
2018-07-02T09:35:08.776Z,24.98
2018-07-02T09:38:11.727Z,25.12
2018-07-02T09:41:14.697Z,24.86
2018-07-02T09:44:17.708Z,25.25
2018-07-02T09:47:20.781Z,25.05
2018-07-02T09:50:24.877Z,25.55
2018-07-02T09:53:27.834Z,25.87
2018-07-02T09:56:31.493Z,25.74
2018-07-02T09:59:34.526Z,25.73
2018-07-02T10:02:37.590Z,25.97
2018-07-02T10:05:40.611Z,25.66
2018-07-02T10:08:43.600Z,25.47
2018-07-02T10:11:46.850Z,25.77
2018-07-02T10:14:49.852Z,26.19
2018-07-02T10:17:52.843Z,26.52
2018-07-02T10:20:55.852Z,26.19
2018-07-02T10:23:59.001Z,26.33
2018-07-02T10:27:02.127Z,26.49
2018-07-02T10:30:05.143Z,26.63
2018-07-02T10:33:09.114Z,26.98
2018-07-02T10:36:12.093Z,26.75
2018-07-02T10:39:15.127Z,26.78
2018-07-02T10:42:18.211Z,26.88
2018-07-02T10:45:21.246Z,27.00
2018-07-02T10:48:24.316Z,26.93
2018-07-02T10:51:27.342Z,26.77
2018-07-02T10:54:30.325Z,25.88
2018-07-02T10:57:33.350Z,26.40
2018-07-02T11:00:36.333Z,26.55
2018-07-02T11:03:39.274Z,26.55
2018-07-02T11:06:42.203Z,26.66
2018-07-02T11:09:45.176Z,26.85
2018-07-02T11:12:48.171Z,26.67
2018-07-02T11:15:52.238Z,27.07
2018-07-02T11:18:55.331Z,26.53
2018-07-02T11:21:59.408Z,26.11
2018-07-02T11:25:02.382Z,26.59
2018-07-02T11:28:05.413Z,27.19
2018-07-02T11:31:08.427Z,27.50
2018-07-02T11:34:11.480Z,27.57
2018-07-02T11:37:14.401Z,27.84
2018-07-02T11:40:17.504Z,27.04
2018-07-02T11:43:20.516Z,26.18
2018-07-02T11:46:23.779Z,26.60
2018-07-02T11:49:26.909Z,27.22
2018-07-02T11:52:30.022Z,26.47
2018-07-02T11:55:34.100Z,26.61
2018-07-02T11:58:38.151Z,27.06
2018-07-02T12:01:41.144Z,27.18
2018-07-02T12:04:44.222Z,27.60
2018-07-02T12:07:47.347Z,27.44
2018-07-02T12:10:50.349Z,27.74
2018-07-02T12:13:53.455Z,27.13
2018-07-02T12:16:56.487Z,27.55
2018-07-02T12:20:00.110Z,27.64
2018-07-02T12:23:03.233Z,26.93
2018-07-02T12:26:07.350Z,27.89
2018-07-02T12:29:10.431Z,28.58
2018-07-02T12:32:13.431Z,28.93
2018-07-02T12:35:16.481Z,28.99
2018-07-02T12:38:19.542Z,28.71
2018-07-02T12:41:22.566Z,29.22
2018-07-02T12:44:25.981Z,29.19
2018-07-02T12:47:28.997Z,28.79
2018-07-02T12:50:31.995Z,28.83
2018-07-02T12:53:34.918Z,28.20
2018-07-02T12:56:37.977Z,28.58
2018-07-02T12:59:40.982Z,28.17
2018-07-02T13:02:43.962Z,28.13
2018-07-02T13:05:46.936Z,28.76
2018-07-02T13:08:50.063Z,29.12
2018-07-02T13:11:53.146Z,29.45
2018-07-02T13:14:56.144Z,29.73
2018-07-02T13:17:59.145Z,30.13
2018-07-02T13:21:02.260Z,30.12
2018-07-02T13:24:05.654Z,30.17
2018-07-02T13:27:09.625Z,30.20
2018-07-02T13:30:12.662Z,30.83
2018-07-02T13:33:15.738Z,31.64
2018-07-02T13:36:18.771Z,31.34
2018-07-02T13:39:21.848Z,31.21
2018-07-02T13:42:24.864Z,30.94
2018-07-02T13:45:28.146Z,31.13
2018-07-02T13:48:31.153Z,31.33
2018-07-02T13:51:34.211Z,31.61
2018-07-02T13:54:37.367Z,32.33
2018-07-02T13:57:40.385Z,32.35
2018-07-02T14:00:43.434Z,32.34
2018-07-02T14:03:46.391Z,32.16
2018-07-02T14:06:49.403Z,31.74
2018-07-02T14:09:52.571Z,30.60
2018-07-02T14:12:55.563Z,30.84
2018-07-02T14:15:58.760Z,31.13
2018-07-02T14:19:01.714Z,30.95
2018-07-02T14:22:04.772Z,30.51
2018-07-02T14:25:07.853Z,30.19
2018-07-02T14:28:10.874Z,30.03
2018-07-02T14:31:14.010Z,30.89
2018-07-02T14:34:16.943Z,31.33
2018-07-02T14:37:19.981Z,31.88
2018-07-02T14:40:22.998Z,31.44
2018-07-02T14:43:25.999Z,30.54
2018-07-02T14:46:29.090Z,29.89
2018-07-02T14:49:32.175Z,29.53
2018-07-02T14:52:35.264Z,28.81
2018-07-02T14:55:38.265Z,29.00
2018-07-02T14:58:41.365Z,29.52
2018-07-02T15:01:44.438Z,30.60
2018-07-02T15:04:47.405Z,30.92
2018-07-02T15:07:50.394Z,31.16
2018-07-02T15:10:53.438Z,31.76
2018-07-02T15:13:56.651Z,31.77
2018-07-02T15:16:59.744Z,31.33
2018-07-02T15:20:02.983Z,31.85
2018-07-02T15:23:06.049Z,31.85
2018-07-02T15:26:09.116Z,32.38
2018-07-02T15:29:12.128Z,32.00
2018-07-02T15:32:15.212Z,31.07
2018-07-02T15:35:20.066Z,30.51
2018-07-02T15:38:23.089Z,30.35
2018-07-02T15:41:26.293Z,31.40
2018-07-02T15:44:29.414Z,31.45
2018-07-02T15:47:33.490Z,32.18
2018-07-02T15:50:36.632Z,30.72
2018-07-02T15:53:39.661Z,29.97
2018-07-02T15:56:42.749Z,30.82
2018-07-02T15:59:45.857Z,31.47
2018-07-02T16:02:48.886Z,30.81
2018-07-02T16:05:51.872Z,30.31
2018-07-02T16:08:54.854Z,30.45
2018-07-02T16:11:57.794Z,31.33
2018-07-02T16:15:00.784Z,31.02
2018-07-02T16:18:03.762Z,30.46
2018-07-02T16:21:06.777Z,29.84
2018-07-02T16:24:10.209Z,29.93
2018-07-02T16:27:13.433Z,29.81
2018-07-02T16:30:16.445Z,29.74
2018-07-02T16:33:20.418Z,30.74
2018-07-02T16:36:23.410Z,30.97
2018-07-02T16:39:26.405Z,30.55
2018-07-02T16:42:29.597Z,30.07
2018-07-02T16:45:33.678Z,30.50
2018-07-02T16:48:36.713Z,31.49
2018-07-02T16:51:39.704Z,30.78
2018-07-02T16:54:42.769Z,30.76
2018-07-02T16:57:45.811Z,30.82
2018-07-02T17:00:48.872Z,31.46
2018-07-02T17:03:51.841Z,32.43
2018-07-02T17:06:54.811Z,32.67
2018-07-02T17:09:57.866Z,32.27
2018-07-02T17:13:00.942Z,32.55
2018-07-02T17:16:05.042Z,32.77
2018-07-02T17:19:08.192Z,32.47
2018-07-02T17:22:11.322Z,33.01
2018-07-02T17:25:14.302Z,32.84
2018-07-02T17:28:17.338Z,32.76
2018-07-02T17:31:20.416Z,31.46
2018-07-02T17:34:23.362Z,31.74
2018-07-02T17:37:26.373Z,31.59
2018-07-02T17:40:29.390Z,31.45
2018-07-02T17:43:32.493Z,30.42
2018-07-02T17:46:35.684Z,30.29
2018-07-02T17:49:38.663Z,30.28
2018-07-02T17:52:41.644Z,30.15
2018-07-02T17:55:44.614Z,30.30
2018-07-02T17:58:47.606Z,30.15
2018-07-02T18:01:50.975Z,29.93
2018-07-02T18:04:53.933Z,30.16
2018-07-02T18:07:56.986Z,30.54
2018-07-02T18:10:59.997Z,29.73
2018-07-02T18:14:03.599Z,29.26
2018-07-02T18:17:12.370Z,28.89
2018-07-02T18:20:15.348Z,28.99
2018-07-02T18:23:22.850Z,28.67
2018-07-02T18:26:25.769Z,28.00
2018-07-02T18:29:31.301Z,27.99
2018-07-02T18:32:34.298Z,28.11
2018-07-02T18:35:37.407Z,28.01
2018-07-02T18:38:40.558Z,27.76
2018-07-02T18:41:43.641Z,27.74
2018-07-02T18:44:46.755Z,27.21
2018-07-02T18:47:51.759Z,27.06
2018-07-02T18:50:54.826Z,26.90
2018-07-02T18:53:59.529Z,26.64
2018-07-02T18:57:02.632Z,26.56
2018-07-02T19:00:05.943Z,26.24
2018-07-02T19:03:08.955Z,25.87
2018-07-02T19:06:12.047Z,25.63
2018-07-02T19:09:15.101Z,25.40
2018-07-02T19:12:18.108Z,25.11
2018-07-02T19:15:22.142Z,24.78
2018-07-02T19:18:25.201Z,24.46
2018-07-02T19:21:28.236Z,24.04
2018-07-02T19:24:32.220Z,23.57
2018-07-02T19:27:35.195Z,23.10
2018-07-02T19:30:38.302Z,22.44
2018-07-02T19:33:41.362Z,21.80
2018-07-02T19:36:44.473Z,21.13
2018-07-02T19:39:47.597Z,20.52
2018-07-02T19:42:50.862Z,19.98
2018-07-02T19:45:53.949Z,19.68
2018-07-02T19:48:56.902Z,19.45
2018-07-02T19:51:59.940Z,19.13
2018-07-02T19:55:03.051Z,18.84
2018-07-02T19:58:06.500Z,18.63
2018-07-02T20:01:09.568Z,18.53
2018-07-02T20:04:13.519Z,18.39
2018-07-02T20:07:16.635Z,18.12
2018-07-02T20:10:19.725Z,17.89
2018-07-02T20:13:22.713Z,17.75
2018-07-02T20:16:25.787Z,17.62
2018-07-02T20:19:28.922Z,17.43
2018-07-02T20:22:31.991Z,17.27
2018-07-02T20:25:35.092Z,17.23
2018-07-02T20:28:39.208Z,17.14
2018-07-02T20:31:43.388Z,17.04
2018-07-02T20:34:46.339Z,16.97
2018-07-02T20:37:49.410Z,16.94
2018-07-02T20:40:52.490Z,16.85
2018-07-02T20:43:55.555Z,16.69
2018-07-02T20:46:58.774Z,16.72
2018-07-02T20:50:01.895Z,16.71
2018-07-02T20:53:05.073Z,16.74
2018-07-02T20:56:09.268Z,16.66
2018-07-02T20:59:12.257Z,16.61
2018-07-02T21:02:16.072Z,16.58
2018-07-02T21:05:19.066Z,16.55
2018-07-02T21:08:22.178Z,16.50
2018-07-02T21:11:25.242Z,16.40
2018-07-02T21:14:28.228Z,16.18
2018-07-02T21:17:31.241Z,15.99
2018-07-02T21:20:35.314Z,15.90
2018-07-02T21:23:38.449Z,15.84
2018-07-02T21:26:41.505Z,15.84
2018-07-02T21:29:44.503Z,15.76
2018-07-02T21:32:47.574Z,15.77
2018-07-02T21:35:50.618Z,15.78
2018-07-02T21:38:53.599Z,15.72
2018-07-02T21:41:56.723Z,15.74
2018-07-02T21:45:00.748Z,15.84
2018-07-02T21:48:03.734Z,15.75
2018-07-02T21:51:07.922Z,15.58
2018-07-02T21:54:11.035Z,15.40
2018-07-02T21:57:14.031Z,15.20
2018-07-02T22:00:18.067Z,15.03
2018-07-02T22:03:22.158Z,14.82
2018-07-02T22:06:26.188Z,14.66
2018-07-02T22:09:29.178Z,14.56
2018-07-02T22:12:32.302Z,14.43
2018-07-02T22:15:36.533Z,14.28
2018-07-02T22:18:39.735Z,14.27
2018-07-02T22:21:42.817Z,14.22
2018-07-02T22:24:46.369Z,14.07
2018-07-02T22:27:49.449Z,13.95
2018-07-02T22:30:52.517Z,13.92
2018-07-02T22:33:55.584Z,13.91
2018-07-02T22:36:58.667Z,13.83
2018-07-02T22:40:01.885Z,13.74
2018-07-02T22:43:05.096Z,13.66
2018-07-02T22:46:08.143Z,13.48
2018-07-02T22:49:12.223Z,13.01
2018-07-02T22:52:15.297Z,12.77
2018-07-02T22:55:18.288Z,12.58
2018-07-02T22:58:21.377Z,12.57
2018-07-02T23:01:24.636Z,12.61
2018-07-02T23:04:27.713Z,12.70
2018-07-02T23:07:31.292Z,12.73
2018-07-02T23:10:34.574Z,12.72
2018-07-02T23:13:37.579Z,12.70
2018-07-02T23:16:41.624Z,12.72
2018-07-02T23:19:44.647Z,12.76
2018-07-02T23:22:58.859Z,12.76
2018-07-02T23:26:01.882Z,12.63
2018-07-02T23:29:04.909Z,12.50
2018-07-02T23:32:08.138Z,12.28
2018-07-02T23:35:12.199Z,12.17
2018-07-02T23:38:15.155Z,12.12
2018-07-02T23:41:18.221Z,12.06
2018-07-02T23:44:21.239Z,11.97
2018-07-02T23:47:24.234Z,11.81
2018-07-02T23:50:27.280Z,11.83
2018-07-02T23:53:30.350Z,11.88
2018-07-02T23:56:33.424Z,11.85
2018-07-02T23:59:36.356Z,11.83
